Time;durP1;ratioP1;P1;durP2;ratioP2;P2;SDS_P1;SDS_P2;PMS_P1;PMS_P2;Temp;Humidity;BMP_temperature;BMP_pressure;BME280_temperature;BME280_humidity;BME280_pressure;Samples;Min_cycle;Max_cycle;Signal;HPM_P1;HPM_P2
2022/04/02 00:01:39;;;;;;;12.40;2.95;;;-2.10;99.90;;;;;;5036476;28;20022;-67
2022/04/02 00:04:06;;;;;;;7.90;3.05;;;-2.10;99.90;;;;;;5036192;28;20018;-67
2022/04/02 00:06:31;;;;;;;6.50;3.15;;;-2.20;99.90;;;;;;5036405;28;20022;-67
2022/04/02 00:08:57;;;;;;;5.65;2.85;;;-2.20;99.90;;;;;;5035917;28;20400;-67
2022/04/02 00:11:23;;;;;;;6.05;3.63;;;-2.30;99.90;;;;;;5036043;28;20032;-67
2022/04/02 00:13:48;;;;;;;9.38;3.55;;;-2.20;99.90;;;;;;5035956;28;20392;-67
2022/04/02 00:16:14;;;;;;;6.93;4.22;;;-2.30;99.90;;;;;;5036035;28;20428;-67
2022/04/02 00:18:39;;;;;;;8.90;3.45;;;-2.20;99.90;;;;;;5035817;28;20052;-67
2022/04/02 00:21:05;;;;;;;6.88;3.80;;;-2.20;99.90;;;;;;5035848;28;20026;-67
2022/04/02 00:23:39;;;;;;;7.70;4.05;;;-2.10;99.90;;;;;;5035791;28;20477;-67
2022/04/02 00:26:08;;;;;;;10.23;3.20;;;-2.10;99.90;;;;;;5035264;28;20033;-67
2022/04/02 00:28:36;;;;;;;6.05;3.40;;;-2.00;99.90;;;;;;5035641;28;20025;-67
2022/04/02 00:31:03;;;;;;;10.10;4.75;;;-2.00;99.90;;;;;;5035653;28;20022;-67
2022/04/02 00:33:28;;;;;;;12.55;3.95;;;-1.90;99.90;;;;;;5035615;28;20408;-67
2022/04/02 00:35:54;;;;;;;10.30;4.50;;;-1.90;99.90;;;;;;5036032;28;20033;-67
2022/04/02 00:38:20;;;;;;;8.65;4.15;;;-1.90;99.90;;;;;;5035479;28;20020;-67
2022/04/02 00:40:46;;;;;;;7.82;4.40;;;-1.90;99.90;;;;;;5035404;28;20026;-67
2022/04/02 00:43:31;;;;;;;8.77;3.72;;;-1.90;99.90;;;;;;5035450;28;20017;-68
2022/04/02 00:45:59;;;;;;;7.03;3.55;;;-1.90;99.90;;;;;;5035864;28;20043;-68
2022/04/02 00:48:27;;;;;;;18.70;4.00;;;-1.90;99.90;;;;;;5035800;28;20385;-68
2022/04/02 00:50:56;;;;;;;14.57;4.30;;;-1.80;99.90;;;;;;5035317;28;20478;-68
2022/04/02 00:53:30;;;;;;;10.13;4.43;;;-1.80;99.90;;;;;;5035555;28;20362;-68
2022/04/02 00:55:55;;;;;;;;;;;-1.70;99.90;;;;;;5035848;28;20057;-68
2022/04/02 00:58:21;;;;;;;10.48;4.40;;;-1.70;99.90;;;;;;5035148;28;19905;-68
2022/04/02 01:00:47;;;;;;;8.30;4.05;;;-1.70;99.90;;;;;;5035668;28;20029;-67
2022/04/02 01:03:13;;;;;;;10.80;4.97;;;-1.70;99.90;;;;;;5035338;28;20381;-68
2022/04/02 01:05:39;;;;;;;6.28;4.05;;;-1.70;99.90;;;;;;5035005;28;20029;-68
2022/04/02 01:08:05;;;;;;;15.82;4.47;;;-1.80;99.90;;;;;;5034685;28;20055;-68
2022/04/02 01:10:32;;;;;;;20.80;4.65;;;-1.80;99.90;;;;;;5034935;28;20486;-68
2022/04/02 01:12:59;;;;;;;9.25;3.97;;;-1.80;99.90;;;;;;5035433;28;20484;-68
2022/04/02 01:15:25;;;;;;;11.00;4.65;;;-1.90;99.90;;;;;;5034865;28;20033;-68
2022/04/02 01:17:52;;;;;;;11.65;4.45;;;-1.90;99.90;;;;;;5034702;28;20021;-68
2022/04/02 01:20:18;;;;;;;9.15;4.50;;;-1.90;99.90;;;;;;5034778;28;20022;-68
2022/04/02 01:22:45;;;;;;;10.02;4.57;;;-1.90;99.90;;;;;;5034893;28;20091;-67
2022/04/02 01:25:11;;;;;;;18.17;6.35;;;-1.90;99.90;;;;;;5034671;28;20064;-67
2022/04/02 01:27:37;;;;;;;7.53;3.80;;;-1.90;99.90;;;;;;5034542;28;20022;-67
2022/04/02 01:30:04;;;;;;;7.05;4.05;;;-1.90;99.90;;;;;;5034841;28;20030;-67
2022/04/02 01:32:30;;;;;;;24.95;4.30;;;-1.90;99.90;;;;;;5034403;28;20025;-68
2022/04/02 01:34:55;;;;;;;11.88;5.13;;;-1.90;99.90;;;;;;5034703;28;20079;-67
2022/04/02 01:37:21;;;;;;;9.55;4.32;;;-2.00;99.90;;;;;;5034196;28;20029;-67
2022/04/02 01:39:47;;;;;;;8.95;4.13;;;-1.90;99.90;;;;;;5033320;28;20108;-67
2022/04/02 01:42:14;;;;;;;11.80;4.97;;;-1.90;99.90;;;;;;5034600;28;20096;-67
2022/04/02 01:44:41;;;;;;;10.02;4.65;;;-2.00;99.90;;;;;;5034284;28;20021;-67
2022/04/02 01:47:07;;;;;;;13.90;4.85;;;-2.00;99.90;;;;;;5034223;28;20026;-67
2022/04/02 01:49:32;;;;;;;8.95;4.20;;;-2.00;99.90;;;;;;5034511;28;20075;-67
2022/04/02 01:51:58;;;;;;;11.25;4.10;;;-2.00;99.90;;;;;;5034112;28;20038;-68
2022/04/02 01:54:23;;;;;;;11.30;4.20;;;-2.10;99.90;;;;;;5034129;28;20078;-68
2022/04/02 01:56:49;;;;;;;14.25;4.35;;;-2.10;99.90;;;;;;5033974;28;20030;-68
2022/04/02 01:59:14;;;;;;;18.98;4.78;;;-2.10;99.90;;;;;;5033934;28;20029;-68
2022/04/02 02:01:40;;;;;;;10.05;5.00;;;-2.10;99.90;;;;;;5033916;28;20024;-68
2022/04/02 02:04:06;;;;;;;13.45;5.20;;;-2.10;99.90;;;;;;5033922;28;20100;-68
2022/04/02 02:06:33;;;;;;;10.95;4.78;;;-2.20;99.90;;;;;;5033546;28;20026;-68
2022/04/02 02:08:59;;;;;;;12.48;4.80;;;-2.20;99.90;;;;;;5033660;28;20030;-68
2022/04/02 02:11:25;;;;;;;11.80;4.30;;;-2.20;99.90;;;;;;5033779;28;20025;-68
2022/04/02 02:13:51;;;;;;;8.15;4.50;;;-2.20;99.90;;;;;;5033775;28;20030;-68
2022/04/02 02:16:18;;;;;;;13.60;5.55;;;-2.30;99.90;;;;;;5033594;28;20489;-68
2022/04/02 02:18:44;;;;;;;17.27;4.55;;;-2.30;99.90;;;;;;5033636;28;20060;-68
2022/04/02 02:21:10;;;;;;;11.18;4.28;;;-2.40;99.90;;;;;;5033699;28;20075;-68
2022/04/02 02:23:35;;;;;;;11.45;4.63;;;-2.40;99.90;;;;;;5033578;28;20049;-68
2022/04/02 02:26:01;;;;;;;10.38;5.43;;;-2.50;99.90;;;;;;5033621;28;20068;-68
2022/04/02 02:28:27;;;;;;;10.02;4.53;;;-2.50;99.90;;;;;;5033453;28;20029;-68
2022/04/02 02:30:53;;;;;;;7.55;4.60;;;-2.50;99.90;;;;;;5033496;28;20405;-68
2022/04/02 02:36:03;;;;;;;13.02;4.32;;;-2.60;99.90;;;;;;5033585;28;20381;-68
2022/04/02 02:38:29;;;;;;;7.60;4.03;;;-2.60;99.90;;;;;;5033344;28;20108;-68
2022/04/02 02:40:54;;;;;;;6.70;3.88;;;-2.70;99.90;;;;;;5033444;28;20112;-68
2022/04/02 02:43:20;;;;;;;8.15;4.70;;;-2.70;99.90;;;;;;5033663;28;20022;-68
2022/04/02 02:45:46;;;;;;;10.85;4.72;;;-2.80;99.90;;;;;;5033364;28;20034;-68
2022/04/02 02:48:11;;;;;;;8.50;4.00;;;-2.90;99.90;;;;;;5033305;28;20028;-68
2022/04/02 02:50:37;;;;;;;14.15;4.93;;;-3.00;99.90;;;;;;5033462;28;20373;-68
2022/04/02 02:53:04;;;;;;;12.63;4.72;;;-3.00;99.90;;;;;;5033254;28;20478;-68
2022/04/02 02:55:30;;;;;;;12.82;5.78;;;-2.90;99.90;;;;;;5033465;28;20485;-68
2022/04/02 02:57:56;;;;;;;12.52;4.57;;;-2.70;99.90;;;;;;5033124;28;20028;-68
2022/04/02 03:00:22;;;;;;;8.57;4.07;;;-2.70;99.90;;;;;;5033176;28;20485;-68
2022/04/02 03:02:48;;;;;;;12.38;5.47;;;-2.60;99.90;;;;;;5033464;28;20026;-68
2022/04/02 03:05:15;;;;;;;7.82;4.60;;;-2.60;99.90;;;;;;5033168;28;20025;-68
2022/04/02 03:07:48;;;;;;;14.13;4.70;;;-2.60;99.90;;;;;;5033373;28;20030;-68
2022/04/02 03:10:16;;;;;;;10.50;3.97;;;-2.50;99.90;;;;;;5033457;28;20025;-68
2022/04/02 03:12:41;;;;;;;10.05;4.03;;;-2.50;99.90;;;;;;5033391;28;20029;-68
2022/04/02 03:15:07;;;;;;;14.80;4.35;;;-2.50;99.90;;;;;;5033323;28;20032;-68
2022/04/02 03:17:33;;;;;;;8.90;4.65;;;-2.60;99.90;;;;;;5033325;28;20104;-68
2022/04/02 03:20:00;;;;;;;8.07;4.72;;;-2.60;99.90;;;;;;5033273;28;20021;-68
2022/04/02 03:22:26;;;;;;;11.02;4.97;;;-2.60;99.90;;;;;;5033023;28;20029;-68
2022/04/02 03:24:52;;;;;;;15.18;4.03;;;-2.70;99.90;;;;;;5033257;28;20030;-68
2022/04/02 03:27:18;;;;;;;8.77;3.83;;;-2.60;99.90;;;;;;5033135;28;20389;-68
2022/04/02 03:29:43;;;;;;;10.20;4.43;;;-2.60;99.90;;;;;;5032859;28;20026;-68
2022/04/02 03:32:09;;;;;;;8.35;3.75;;;-2.60;99.90;;;;;;5033407;28;20022;-68
2022/04/02 03:34:35;;;;;;;10.70;4.15;;;-2.60;99.90;;;;;;5032906;28;20396;-68
2022/04/02 03:37:00;;;;;;;8.40;4.10;;;-2.60;99.90;;;;;;5032790;28;20533;-68
2022/04/02 03:39:26;;;;;;;8.38;3.78;;;-2.50;99.90;;;;;;5015066;28;20018;-68
2022/04/02 03:41:53;;;;;;;13.65;5.03;;;-2.50;99.90;;;;;;5032802;28;20024;-68
2022/04/02 03:44:19;;;;;;;9.95;4.85;;;-2.50;99.90;;;;;;5032860;28;20041;-68
2022/04/02 03:49:29;;;;;;;6.72;4.25;;;-2.50;99.90;;;;;;5033246;28;20040;-68
2022/04/02 03:51:55;;;;;;;16.00;3.65;;;-2.40;99.90;;;;;;5033029;28;20397;-68
2022/04/02 03:54:21;;;;;;;10.07;3.65;;;-2.40;99.90;;;;;;5032785;28;20017;-68
2022/04/02 03:56:47;;;;;;;8.38;4.18;;;-2.40;99.90;;;;;;5032649;28;20419;-68
2022/04/02 03:59:12;;;;;;;8.40;3.30;;;-2.40;99.90;;;;;;5032624;28;20022;-68
2022/04/02 04:01:39;;;;;;;10.90;4.28;;;-2.50;99.90;;;;;;5033727;28;20021;-68
2022/04/02 04:04:04;;;;;;;9.10;4.10;;;-2.60;99.90;;;;;;5036464;28;20558;-68
2022/04/02 04:06:31;;;;;;;8.52;3.15;;;-2.60;99.90;;;;;;5036352;28;20101;-68
2022/04/02 04:08:58;;;;;;;5.38;3.63;;;-2.60;99.90;;;;;;5036306;28;20062;-69
2022/04/02 04:11:25;;;;;;;10.55;3.45;;;-2.60;99.90;;;;;;5036081;28;20055;-70
2022/04/02 04:13:51;;;;;;;12.40;3.22;;;-2.60;99.90;;;;;;5035998;28;20021;-70
2022/04/02 04:16:17;;;;;;;4.70;3.22;;;-2.60;99.90;;;;;;5035887;28;20029;-70
2022/04/02 04:18:42;;;;;;;10.85;3.85;;;-2.70;99.90;;;;;;5035864;28;20022;-69
2022/04/02 04:21:08;;;;;;;10.55;3.33;;;-2.80;99.90;;;;;;5035883;28;20020;-70
2022/04/02 04:23:34;;;;;;;12.82;3.28;;;-3.00;99.90;;;;;;5035822;28;20018;-70
2022/04/02 04:26:00;;;;;;;11.45;3.47;;;-3.00;99.90;;;;;;5035910;28;20021;-69
2022/04/02 04:28:26;;;;;;;8.30;3.78;;;-2.90;99.90;;;;;;5035678;28;20029;-70
2022/04/02 04:30:52;;;;;;;5.90;3.30;;;-2.90;99.90;;;;;;5035695;28;20037;-70
2022/04/02 04:33:17;;;;;;;5.40;3.38;;;-2.90;99.90;;;;;;5035631;28;20481;-70
2022/04/02 04:35:43;;;;;;;6.22;3.53;;;-2.80;99.90;;;;;;5035521;28;20386;-69
2022/04/02 04:38:08;;;;;;;5.82;2.92;;;-2.80;99.90;;;;;;5035518;28;20387;-70
2022/04/02 04:40:34;;;;;;;7.55;3.13;;;-2.90;99.90;;;;;;5035544;28;20159;-70
2022/04/02 04:42:59;;;;;;;16.33;3.60;;;-2.90;99.90;;;;;;5035691;28;20112;-70
2022/04/02 04:45:25;;;;;;;12.40;3.33;;;-3.10;99.90;;;;;;5035665;28;20029;-70
2022/04/02 04:47:51;;;;;;;17.40;3.20;;;-3.10;99.90;;;;;;5035305;28;20018;-69
2022/04/02 04:50:19;;;;;;;12.15;3.38;;;-3.10;99.90;;;;;;5035278;28;20500;-70
2022/04/02 04:52:45;;;;;;;6.20;3.60;;;-3.10;99.90;;;;;;5035302;28;20477;-70
2022/04/02 04:55:11;;;;;;;14.25;4.43;;;-3.10;99.90;;;;;;5035508;28;20096;-70
2022/04/02 04:57:36;;;;;;;5.40;3.08;;;-3.10;99.90;;;;;;5035016;28;20112;-69
2022/04/02 05:00:04;;;;;;;5.22;3.10;;;-3.20;99.90;;;;;;5035291;28;20064;-70
2022/04/02 05:02:30;;;;;;;6.22;2.97;;;-3.30;99.90;;;;;;5035098;28;20440;-70
2022/04/02 05:04:56;;;;;;;7.28;3.22;;;-3.30;99.90;;;;;;5035352;28;20018;-70
2022/04/02 05:07:22;;;;;;;7.97;3.08;;;-3.30;99.90;;;;;;5035285;28;20140;-69
2022/04/02 05:09:47;;;;;;;7.97;3.50;;;-3.30;99.90;;;;;;5034790;28;20060;-69
2022/04/02 05:12:14;;;;;;;5.75;3.47;;;-3.30;99.90;;;;;;5034732;28;20033;-70
2022/04/02 05:14:39;;;;;;;13.40;2.95;;;-3.20;99.90;;;;;;5034852;28;20025;-70
2022/04/02 05:17:05;;;;;;;8.88;3.45;;;-3.20;99.90;;;;;;5034712;28;20036;-70
2022/04/02 05:19:31;;;;;;;6.82;3.45;;;-3.10;99.90;;;;;;5034705;28;20022;-70
2022/04/02 05:21:57;;;;;;;8.15;3.03;;;-3.10;99.90;;;;;;5034739;28;20481;-70
2022/04/02 05:24:23;;;;;;;11.20;3.88;;;-3.00;99.90;;;;;;5034892;28;20022;-69
2022/04/02 05:26:49;;;;;;;4.90;3.30;;;-2.90;99.90;;;;;;5034887;28;20533;-70
2022/04/02 05:29:15;;;;;;;8.57;3.65;;;-2.80;99.90;;;;;;5034588;28;20033;-70
2022/04/02 05:31:43;;;;;;;13.68;3.47;;;-2.80;99.90;;;;;;5034786;28;20100;-70
2022/04/02 05:34:09;;;;;;;11.77;3.30;;;-2.80;99.90;;;;;;5034596;28;20130;-70
2022/04/02 05:36:41;;;;;;;7.00;2.97;;;-2.70;99.90;;;;;;5034448;28;20120;-70
2022/04/02 05:39:06;;;;;;;8.10;3.05;;;-2.70;99.90;;;;;;5034723;28;20020;-70
2022/04/02 05:41:32;;;;;;;8.50;3.13;;;-2.70;99.90;;;;;;5034624;28;20021;-70
2022/04/02 05:43:58;;;;;;;6.82;3.53;;;-2.60;99.90;;;;;;5034374;28;20021;-69
2022/04/02 05:46:23;;;;;;;6.95;3.63;;;-2.60;99.90;;;;;;5034226;28;20025;-69
2022/04/02 05:48:49;;;;;;;13.60;6.45;;;-2.50;99.90;;;;;;5034157;28;20032;-70
2022/04/02 05:51:14;;;;;;;25.85;15.20;;;-2.40;99.90;;;;;;5034248;28;20116;-69
2022/04/02 05:53:40;;;;;;;35.28;19.13;;;-2.40;99.90;;;;;;5034138;28;20017;-69
2022/04/02 05:56:06;;;;;;;27.45;14.65;;;-2.30;99.90;;;;;;5034294;28;20029;-69
2022/04/02 05:58:32;;;;;;;26.80;16.88;;;-2.20;99.90;;;;;;5034257;28;20021;-70
2022/04/02 06:00:57;;;;;;;27.83;12.05;;;-2.20;99.90;;;;;;5016316;28;20021;-70
2022/04/02 06:03:23;;;;;;;27.20;8.25;;;-2.10;99.90;;;;;;5034520;28;20025;-70
2022/04/02 06:05:49;;;;;;;17.65;6.20;;;-2.00;99.90;;;;;;5033969;28;20028;-70
2022/04/02 06:08:16;;;;;;;15.38;4.68;;;-1.90;99.90;;;;;;5033875;28;20091;-69
2022/04/02 06:10:45;;;;;;;36.47;12.93;;;-1.90;99.90;;;;;;5033841;28;20025;-69
2022/04/02 06:13:12;;;;;;;17.33;6.40;;;-1.80;99.90;;;;;;5033790;28;20433;-70
2022/04/02 06:15:37;;;;;;;11.55;4.13;;;-1.70;99.90;;;;;;5033737;28;20116;-70
2022/04/02 06:18:03;;;;;;;15.18;5.10;;;-1.60;99.90;;;;;;5033669;28;20092;-69
2022/04/02 06:20:29;;;;;;;21.48;9.48;;;-1.50;99.90;;;;;;5033861;28;20028;-69
2022/04/02 06:22:55;;;;;;;21.55;8.07;;;-1.40;99.90;;;;;;5033918;28;20025;-69
2022/04/02 06:25:21;;;;;;;20.88;5.95;;;-1.30;99.90;;;;;;5033015;28;20029;-70
2022/04/02 06:27:48;;;;;;;13.45;4.35;;;-1.10;99.90;;;;;;5033514;28;20068;-70
2022/04/02 06:30:17;;;;;;;13.90;3.10;;;-1.00;99.90;;;;;;5033686;28;20025;-70
2022/04/02 06:32:43;;;;;;;8.70;3.30;;;-0.90;99.90;;;;;;5033559;28;20367;-70
2022/04/02 06:35:09;;;;;;;7.50;3.17;;;-0.70;99.90;;;;;;5033454;28;20059;-70
2022/04/02 06:37:39;;;;;;;12.85;4.18;;;-0.50;99.90;;;;;;5033502;28;20108;-69
2022/04/02 06:40:09;;;;;;;8.00;3.70;;;-0.30;99.90;;;;;;5033829;28;20028;-69
2022/04/02 06:42:35;;;;;;;6.65;3.17;;;-0.30;99.90;;;;;;5033683;28;20025;-69
2022/04/02 06:45:01;;;;;;;11.10;3.55;;;-0.10;99.90;;;;;;5033351;28;20413;-69
2022/04/02 06:47:28;;;;;;;23.10;7.22;;;0.00;99.90;;;;;;5033262;28;20052;-69
2022/04/02 06:49:55;;;;;;;8.75;3.65;;;0.20;99.90;;;;;;5033868;28;20076;-70
2022/04/02 06:52:21;;;;;;;8.27;3.42;;;0.40;99.90;;;;;;5033866;28;20086;-69
2022/04/02 06:54:47;;;;;;;7.13;3.25;;;0.40;99.90;;;;;;5033272;28;20530;-69
2022/04/02 06:57:22;;;;;;;7.55;2.58;;;0.60;99.90;;;;;;5033136;28;20113;-70
2022/04/02 06:59:48;;;;;;;4.80;3.17;;;0.80;99.90;;;;;;5033129;28;20022;-70
2022/04/02 07:02:16;;;;;;;8.48;3.65;;;0.90;99.90;;;;;;5033139;28;20028;-70
2022/04/02 07:04:42;;;;;;;6.32;3.40;;;1.10;99.90;;;;;;5033154;28;20021;-71
2022/04/02 07:07:09;;;;;;;10.77;2.60;;;1.20;99.90;;;;;;5033156;28;20022;-70
2022/04/02 07:09:34;;;;;;;12.57;2.95;;;1.30;99.90;;;;;;5032901;28;20053;-70
2022/04/02 07:12:00;;;;;;;7.25;2.85;;;1.50;99.90;;;;;;5015356;28;20021;-70
2022/04/02 07:14:26;;;;;;;6.72;2.80;;;1.60;99.90;;;;;;5033030;28;20026;-70
2022/04/02 07:16:51;;;;;;;6.47;3.25;;;1.70;99.90;;;;;;5032962;28;20037;-70
2022/04/02 07:19:21;;;;;;;8.75;3.10;;;1.90;99.90;;;;;;5032949;28;20454;-69
2022/04/02 07:21:47;;;;;;;9.65;2.88;;;2.10;99.90;;;;;;5033238;28;20083;-69
2022/04/02 07:24:16;;;;;;;7.75;2.92;;;2.20;99.90;;;;;;5015253;28;20026;-69
2022/04/02 07:26:45;;;;;;;5.95;3.30;;;2.30;99.90;;;;;;5032946;28;20025;-69
2022/04/02 07:29:12;;;;;;;4.15;2.45;;;2.50;99.90;;;;;;5032921;28;20025;-69
2022/04/02 07:31:37;;;;;;;9.07;3.47;;;2.60;99.90;;;;;;5032966;28;20029;-69
2022/04/02 07:34:03;;;;;;;10.82;2.50;;;2.80;99.90;;;;;;5033191;28;20052;-69
2022/04/02 07:37:00;;;;;;;13.57;2.97;;;2.80;99.90;;;;;;5035250;28;20048;-72
2022/04/02 07:39:34;;;;;;;4.57;2.70;;;2.90;99.90;;;;;;5037111;28;20108;-70
2022/04/02 07:42:11;;;;;;;7.45;3.05;;;3.10;99.90;;;;;;5036712;28;20044;-69
2022/04/02 07:45:03;;;;;;;7.45;3.10;;;3.30;99.90;;;;;;5036518;28;20021;-69
2022/04/02 07:47:38;;;;;;;6.10;2.97;;;3.40;99.90;;;;;;5037014;28;20026;-70
2022/04/02 07:50:13;;;;;;;8.52;3.20;;;3.70;99.90;;;;;;5036705;28;20037;-69
2022/04/02 07:52:43;;;;;;;6.35;3.00;;;3.50;99.90;;;;;;5036696;28;20092;-69
2022/04/02 07:55:10;;;;;;;12.98;4.18;;;3.70;99.90;;;;;;5036377;28;20018;-69
2022/04/02 07:57:42;;;;;;;10.98;3.85;;;3.80;99.90;;;;;;5036123;28;20031;-69
2022/04/02 08:00:10;;;;;;;8.52;3.38;;;3.70;99.90;;;;;;5036524;28;20032;-69
2022/04/02 08:02:44;;;;;;;10.98;3.60;;;3.80;99.90;;;;;;5036522;28;20450;-69
2022/04/02 08:05:14;;;;;;;8.82;3.40;;;3.80;99.90;;;;;;5036772;28;20021;-68
2022/04/02 08:07:49;;;;;;;9.98;2.63;;;4.00;99.90;;;;;;5036617;28;20034;-68
2022/04/02 08:10:16;;;;;;;5.22;3.25;;;4.10;99.90;;;;;;5036331;28;20081;-68
2022/04/02 08:12:42;;;;;;;7.05;3.22;;;4.00;99.90;;;;;;5036276;28;20044;-68
2022/04/02 08:15:14;;;;;;;6.22;3.47;;;4.10;99.90;;;;;;5018245;28;20556;-68
2022/04/02 08:17:41;;;;;;;5.32;2.33;;;4.50;99.90;;;;;;5035863;28;20393;-68
2022/04/02 08:20:08;;;;;;;10.27;2.60;;;4.70;99.90;;;;;;5036123;28;20025;-68
2022/04/02 08:22:34;;;;;;;7.72;3.22;;;4.90;99.90;;;;;;5035814;28;20017;-67
2022/04/02 08:24:59;;;;;;;9.70;3.72;;;4.90;99.90;;;;;;5035746;28;20026;-67
2022/04/02 08:27:41;;;;;;;5.50;2.95;;;4.90;99.90;;;;;;5035675;28;20037;-68
2022/04/02 08:30:12;;;;;;;8.25;3.65;;;5.20;99.90;;;;;;5036261;28;20025;-68
2022/04/02 08:32:52;;;;;;;11.70;2.60;;;5.30;99.90;;;;;;5035965;28;20025;-68
2022/04/02 08:35:59;;;;;;;8.20;3.00;;;5.50;99.90;;;;;;5035802;28;20516;-68
2022/04/02 08:38:57;;;;;;;8.10;3.25;;;5.40;99.90;;;;;;5031404;28;20116;-67
2022/04/02 08:41:53;;;;;;;4.85;2.47;;;5.20;99.90;;;;;;5035471;28;20075;-68
2022/04/02 08:44:49;;;;;;;12.30;3.33;;;5.40;99.90;;;;;;5035752;28;20032;-68
2022/04/02 08:47:40;;;;;;;13.68;3.10;;;5.80;99.90;;;;;;5035043;28;20036;-68
2022/04/02 08:50:10;;;;;;;6.22;3.00;;;6.00;99.90;;;;;;5026132;28;20128;-68
2022/04/02 08:52:51;;;;;;;17.75;3.85;;;5.90;99.90;;;;;;5035740;28;20124;-68
2022/04/02 08:55:18;;;;;;;6.07;3.72;;;5.60;99.90;;;;;;5035403;28;20434;-68
2022/04/02 08:57:58;;;;;;;9.57;3.15;;;5.50;99.90;;;;;;5035145;28;20103;-68
2022/04/02 09:00:25;;;;;;;5.95;3.38;;;5.60;99.90;;;;;;5035455;28;20496;-68
2022/04/02 09:02:53;;;;;;;5.47;2.88;;;5.20;99.90;;;;;;5035071;28;20108;-68
2022/04/02 09:05:25;;;;;;;4.38;2.90;;;4.80;99.90;;;;;;5035022;28;20044;-68
2022/04/02 09:08:28;;;;;;;5.43;3.28;;;4.60;99.90;;;;;;5034847;28;20405;-68
2022/04/02 09:11:12;;;;;;;7.97;2.70;;;4.40;99.90;;;;;;5035005;28;20061;-68
2022/04/02 09:14:05;;;;;;;7.68;3.20;;;4.20;99.90;;;;;;5034894;28;20029;-68
2022/04/02 09:16:41;;;;;;;4.82;2.47;;;4.00;99.90;;;;;;5034934;28;20104;-68
2022/04/02 09:19:14;;;;;;;7.82;3.22;;;4.00;99.90;;;;;;5034729;28;20086;-68
2022/04/02 09:21:54;;;;;;;15.93;3.70;;;3.90;99.90;;;;;;5034771;28;20025;-68
2022/04/02 09:24:33;;;;;;;9.57;4.65;;;3.90;99.90;;;;;;5034643;28;20022;-71
2022/04/02 09:27:01;;;;;;;12.18;4.43;;;3.80;99.90;;;;;;5035001;28;20029;-69
2022/04/02 09:29:35;;;;;;;4.68;3.40;;;4.00;99.90;;;;;;5034622;28;20039;-68
2022/04/02 09:32:35;;;;;;;14.50;3.60;;;4.20;99.90;;;;;;5034775;28;20075;-68
2022/04/02 09:35:16;;;;;;;8.23;2.95;;;4.30;99.90;;;;;;4996682;28;20107;-68
2022/04/02 09:38:03;;;;;;;6.65;3.28;;;4.40;99.90;;;;;;5034327;28;20026;-68
2022/04/02 09:40:50;;;;;;;5.30;3.35;;;4.70;99.90;;;;;;5034647;28;20536;-68
2022/04/02 09:43:28;;;;;;;5.43;2.40;;;5.00;99.90;;;;;;5034678;28;20021;-68
2022/04/02 09:46:00;;;;;;;5.45;2.95;;;5.20;99.90;;;;;;5034562;28;20080;-68
2022/04/02 09:48:33;;;;;;;14.00;3.08;;;5.20;99.90;;;;;;5034169;28;20496;-68
2022/04/02 09:51:07;;;;;;;6.18;3.03;;;5.10;99.90;;;;;;5034461;28;20021;-68
2022/04/02 09:53:38;;;;;;;5.97;2.92;;;5.10;99.90;;;;;;5034239;28;20033;-68
2022/04/02 09:56:33;;;;;;;6.00;3.40;;;5.10;99.90;;;;;;5034595;28;20026;-69
2022/04/02 09:59:04;;;;;;;6.10;3.53;;;5.20;99.90;;;;;;5033492;28;20022;-69
2022/04/02 10:01:46;;;;;;;7.68;3.60;;;5.20;99.90;;;;;;5033849;28;20025;-69
2022/04/02 10:04:39;;;;;;;5.25;2.75;;;5.40;99.90;;;;;;5034275;28;20504;-69
2022/04/02 10:07:28;;;;;;;9.48;2.67;;;5.90;99.90;;;;;;5034065;28;20025;-69
2022/04/02 10:09:55;;;;;;;8.02;2.92;;;6.40;99.90;;;;;;4993371;28;20089;-68
2022/04/02 10:12:24;;;;;;;10.40;2.95;;;7.60;99.90;;;;;;5034098;28;20025;-68
2022/04/02 10:14:56;;;;;;;9.02;2.28;;;8.40;99.90;;;;;;5033763;28;20033;-68
2022/04/02 10:17:28;;;;;;;5.75;2.67;;;8.70;99.90;;;;;;5033948;28;20030;-68
2022/04/02 10:19:56;;;;;;;12.10;7.13;;;8.80;99.90;;;;;;5034025;28;20021;-68
2022/04/02 10:22:42;;;;;;;7.72;2.15;;;8.30;99.90;;;;;;5033690;28;20021;-68
2022/04/02 10:25:10;;;;;;;7.32;2.15;;;8.40;99.90;;;;;;5033935;28;20032;-68
2022/04/02 10:27:39;;;;;;;6.13;3.00;;;8.50;99.90;;;;;;5033739;28;20034;-68
2022/04/02 10:30:07;;;;;;;4.95;1.90;;;8.00;99.90;;;;;;5033595;28;20034;-68
2022/04/02 10:35:46;;;;;;;1.65;1.45;;;7.50;99.90;;;;;;5033727;28;20067;-69
2022/04/02 10:38:37;;;;;;;3.95;2.10;;;8.10;99.90;;;;;;5033634;28;20394;-68
2022/04/02 10:41:19;;;;;;;2.55;1.42;;;8.10;99.90;;;;;;5034064;28;20040;-68
2022/04/02 10:43:51;;;;;;;2.63;1.50;;;8.10;99.90;;;;;;5015724;28;20068;-68
2022/04/02 10:46:22;;;;;;;6.10;5.03;;;8.20;99.90;;;;;;5033703;28;20053;-68
2022/04/02 10:49:00;;;;;;;2.25;1.33;;;8.30;99.90;;;;;;5033415;28;20024;-68
2022/04/02 10:51:31;;;;;;;2.33;1.52;;;8.20;99.90;;;;;;5033698;28;20026;-68
2022/04/02 10:54:06;;;;;;;3.67;2.28;;;8.50;99.90;;;;;;5033517;28;20116;-68
2022/04/02 10:56:44;;;;;;;5.32;1.75;;;8.30;99.90;;;;;;5033771;28;20057;-68
2022/04/02 10:59:11;;;;;;;6.38;1.85;;;8.00;99.90;;;;;;5033818;28;20058;-68
2022/04/02 11:01:45;;;;;;;5.95;1.90;;;8.00;99.90;;;;;;5033168;28;20093;-68
2022/04/02 11:04:13;;;;;;;;;;;7.70;99.90;;;;;;5033893;28;20112;-68
2022/04/02 11:06:49;;;;;;;4.22;1.58;;;7.20;99.90;;;;;;5033794;28;19904;-68
2022/04/02 11:09:31;;;;;;;6.10;1.73;;;6.90;99.90;;;;;;5033163;28;20067;-68
2022/04/02 11:12:05;;;;;;;4.68;1.48;;;6.50;99.90;;;;;;5036262;28;20030;-68
2022/04/02 11:14:43;;;;;;;1.50;1.05;;;6.40;99.90;;;;;;5037551;28;20109;-68
2022/04/02 11:17:25;;;;;;;2.45;1.58;;;6.20;99.90;;;;;;5019359;28;20032;-68
2022/04/02 11:19:54;;;;;;;2.20;1.70;;;6.30;99.90;;;;;;5037160;28;20421;-68
2022/04/02 11:22:29;;;;;;;2.97;1.30;;;6.60;99.90;;;;;;5037268;28;20044;-68
2022/04/02 11:25:11;;;;;;;4.30;1.48;;;7.00;99.90;;;;;;5037363;28;20380;-68
2022/04/02 11:27:38;;;;;;;6.60;1.67;;;7.20;99.90;;;;;;5037132;28;20033;-68
2022/04/02 11:30:11;;;;;;;5.28;1.70;;;7.50;99.90;;;;;;5037628;28;20030;-68
2022/04/02 11:32:45;;;;;;;4.07;1.13;;;7.90;99.90;;;;;;5037129;28;20037;-68
2022/04/02 11:35:16;;;;;;;3.60;1.50;;;8.20;99.90;;;;;;5036882;28;20268;-68
2022/04/02 11:38:14;;;;;;;4.22;2.05;;;8.10;99.20;;;;;;5036879;28;20048;-68
2022/04/02 11:40:59;;;;;;;1.98;1.10;;;8.10;94.40;;;;;;5036957;28;20026;-68
2022/04/02 11:43:33;;;;;;;2.30;1.20;;;7.80;95.10;;;;;;5036807;28;20084;-69
2022/04/02 11:46:01;;;;;;;5.03;1.50;;;7.80;95.20;;;;;;5036646;28;20020;-68
2022/04/02 11:48:39;;;;;;;1.55;1.20;;;8.40;99.10;;;;;;5036506;28;20017;-68
2022/04/02 11:51:18;;;;;;;1.75;1.15;;;9.30;99.00;;;;;;5036855;28;20486;-68
2022/04/02 11:53:44;;;;;;;1.95;1.38;;;9.30;93.80;;;;;;5036533;28;20036;-68
2022/04/02 11:56:31;;;;;;;10.45;1.60;;;9.00;94.00;;;;;;5036335;28;20029;-68
2022/04/02 11:59:08;;;;;;;4.53;3.00;;;8.40;96.00;;;;;;5036418;28;20018;-68
2022/04/02 12:01:43;;;;;;;3.03;1.42;;;8.10;95.10;;;;;;5036612;28;20377;-68
2022/04/02 12:04:14;;;;;;;6.25;2.45;;;7.90;97.30;;;;;;5036249;28;20032;-68
2022/04/02 12:06:45;;;;;;;4.30;1.83;;;7.60;98.20;;;;;;5036545;28;20029;-68
2022/04/02 12:09:19;;;;;;;2.47;1.85;;;7.30;99.40;;;;;;5018231;28;20107;-69
2022/04/02 12:12:03;;;;;;;4.20;1.30;;;7.00;96.70;;;;;;5036135;28;20021;-69
2022/04/02 12:14:30;;;;;;;2.42;1.48;;;6.80;98.10;;;;;;5036284;28;20385;-68
2022/04/02 12:17:31;;;;;;;2.22;1.15;;;6.70;97.40;;;;;;5036207;28;20040;-68
2022/04/02 12:19:57;;;;;;;4.80;1.35;;;6.60;99.50;;;;;;5022853;28;20029;-68
2022/04/02 12:22:26;;;;;;;1.80;1.40;;;6.60;97.60;;;;;;5035048;28;20101;-68
2022/04/02 12:24:54;;;;;;;4.53;2.42;;;6.50;99.60;;;;;;5035874;28;20029;-68
2022/04/02 12:27:50;;;;;;;3.45;1.65;;;6.20;99.90;;;;;;5035686;28;20037;-68
2022/04/02 12:30:21;;;;;;;3.67;1.77;;;6.00;99.90;;;;;;5018670;28;20481;-68
2022/04/02 12:32:47;;;;;;;4.72;1.73;;;5.70;99.90;;;;;;5035679;28;20478;-68
2022/04/02 12:35:15;;;;;;;6.07;2.05;;;5.50;99.90;;;;;;5036027;28;20363;-68
2022/04/02 12:37:44;;;;;;;8.63;4.63;;;6.00;99.90;;;;;;5035484;28;20033;-68
2022/04/02 12:40:18;;;;;;;7.40;1.90;;;7.90;99.90;;;;;;5035530;28;20022;-68
2022/04/02 12:42:45;;;;;;;9.38;1.80;;;9.60;99.90;;;;;;5035611;28;20021;-69
2022/04/02 12:45:17;;;;;;;4.93;3.20;;;10.60;94.70;;;;;;5035749;28;20025;-69
2022/04/02 12:48:05;;;;;;;1.60;1.30;;;11.80;94.40;;;;;;5035600;28;20366;-69
2022/04/02 12:50:37;;;;;;;7.40;1.95;;;10.80;87.80;;;;;;5035643;28;20385;-69
2022/04/02 12:53:03;;;;;;;3.13;1.73;;;10.20;93.00;;;;;;5035928;28;20382;-69
2022/04/02 12:55:34;;;;;;;3.47;1.55;;;9.70;93.50;;;;;;5035280;28;20064;-69
2022/04/02 12:58:10;;;;;;;5.72;1.90;;;9.00;96.30;;;;;;5035488;28;20064;-69
2022/04/02 13:00:38;;;;;;;2.92;1.30;;;7.70;98.30;;;;;;5034879;28;20555;-70
2022/04/02 13:03:06;;;;;;;5.40;1.85;;;7.30;99.90;;;;;;5035148;28;20079;-70
2022/04/02 13:05:48;;;;;;;13.95;2.08;;;6.70;99.90;;;;;;5034533;28;20022;-70
2022/04/02 13:08:17;;;;;;;5.97;1.77;;;6.10;99.90;;;;;;5035008;28;20087;-70
2022/04/02 13:10:43;;;;;;;4.07;2.35;;;6.00;99.90;;;;;;5035136;28;20029;-70
2022/04/02 13:13:12;;;;;;;4.15;2.17;;;6.10;99.90;;;;;;5017140;28;20021;-70